createdAt,value
2024-02-22T00:01:56.837Z,3.21
2024-02-22T00:08:15.122Z,3.15
2024-02-22T00:10:43.078Z,3.11
2024-02-22T00:13:11.904Z,3.09
2024-02-22T00:15:40.127Z,3.06
2024-02-22T00:18:07.947Z,3.02
2024-02-22T00:20:35.508Z,2.99
2024-02-22T00:23:04.325Z,2.97
2024-02-22T00:25:32.341Z,2.95
2024-02-22T00:28:00.166Z,2.94
2024-02-22T00:30:31.627Z,2.93
2024-02-22T00:32:59.176Z,2.94
2024-02-22T00:35:26.830Z,2.96
2024-02-22T00:37:54.455Z,2.96
2024-02-22T00:40:22.078Z,2.96
2024-02-22T00:42:49.868Z,2.97
2024-02-22T00:45:18.270Z,2.99
2024-02-22T00:47:45.842Z,3.00
2024-02-22T00:50:13.583Z,3.02
2024-02-22T00:52:44.341Z,3.04
2024-02-22T00:55:11.871Z,3.06
2024-02-22T00:57:39.399Z,3.07
2024-02-22T01:00:08.033Z,3.09
2024-02-22T01:02:35.591Z,3.10
2024-02-22T01:05:03.593Z,3.11
2024-02-22T01:07:32.900Z,3.12
2024-02-22T01:10:00.692Z,3.13
2024-02-22T01:12:28.765Z,3.15
2024-02-22T01:14:56.492Z,3.18
2024-02-22T01:17:23.969Z,3.19
2024-02-22T01:19:51.545Z,3.20
2024-02-22T01:22:19.285Z,3.21
2024-02-22T01:24:47.077Z,3.21
2024-02-22T01:27:14.558Z,3.20
2024-02-22T01:29:43.707Z,3.19
2024-02-22T01:32:11.408Z,3.19
2024-02-22T01:34:39.035Z,3.20
2024-02-22T01:37:06.569Z,3.21
2024-02-22T01:39:34.058Z,3.21
2024-02-22T01:42:01.577Z,3.21
2024-02-22T01:44:29.979Z,3.21
2024-02-22T01:46:57.771Z,3.21
2024-02-22T01:49:25.733Z,3.20
2024-02-22T01:51:59.419Z,3.18
2024-02-22T01:54:27.298Z,3.13
2024-02-22T01:56:55.443Z,3.08
2024-02-22T01:59:23.066Z,3.07
2024-02-22T02:01:52.392Z,3.06
2024-02-22T02:04:20.296Z,3.06
2024-02-22T02:06:47.968Z,3.06
2024-02-22T02:09:15.595Z,3.04
2024-02-22T02:11:43.330Z,3.02
2024-02-22T02:14:11.086Z,3.02
2024-02-22T02:16:38.738Z,3.01
2024-02-22T02:19:08.964Z,2.99
2024-02-22T02:22:09.647Z,2.97
2024-02-22T02:24:53.544Z,2.95
2024-02-22T02:27:21.255Z,2.94
2024-02-22T02:29:48.881Z,2.93
2024-02-22T02:32:16.512Z,2.92
2024-02-22T02:34:44.140Z,2.91
2024-02-22T02:37:12.701Z,2.91
2024-02-22T02:39:40.163Z,2.92
2024-02-22T02:42:07.999Z,2.93
2024-02-22T02:44:35.465Z,2.92
2024-02-22T02:47:08.110Z,2.91
2024-02-22T02:49:35.774Z,2.90
2024-02-22T02:52:03.507Z,2.89
2024-02-22T02:54:31.028Z,2.86
2024-02-22T02:56:58.510Z,2.85
2024-02-22T02:59:26.504Z,2.84
2024-02-22T03:01:54.074Z,2.83
2024-02-22T03:04:21.731Z,2.81
2024-02-22T03:06:49.391Z,2.79
2024-02-22T03:09:17.045Z,2.78
2024-02-22T03:11:45.110Z,2.76
2024-02-22T03:14:12.916Z,2.75
2024-02-22T03:16:40.525Z,2.72
2024-02-22T03:19:08.133Z,2.69
2024-02-22T03:21:36.495Z,2.66
2024-02-22T03:24:04.909Z,2.65
2024-02-22T03:26:32.453Z,2.65
2024-02-22T03:28:59.930Z,2.63
2024-02-22T03:31:29.742Z,2.61
2024-02-22T03:33:57.783Z,2.59
2024-02-22T03:36:25.303Z,2.56
2024-02-22T03:38:54.685Z,2.54
2024-02-22T03:41:25.559Z,2.53
2024-02-22T03:43:53.409Z,2.52
2024-02-22T03:46:21.335Z,2.52
2024-02-22T03:48:48.932Z,2.53
2024-02-22T03:51:16.635Z,2.53
2024-02-22T03:53:46.323Z,2.54
2024-02-22T03:56:14.494Z,2.53
2024-02-22T03:58:42.144Z,2.51
2024-02-22T04:01:10.036Z,2.50
2024-02-22T04:03:37.623Z,2.50
2024-02-22T04:06:05.291Z,2.50
2024-02-22T04:08:33.223Z,2.49
2024-02-22T04:11:00.796Z,2.49
2024-02-22T04:13:28.541Z,2.49
2024-02-22T04:15:55.995Z,2.49
2024-02-22T04:18:23.584Z,2.49
2024-02-22T04:20:51.099Z,2.49
2024-02-22T04:23:18.846Z,2.48
2024-02-22T04:25:46.922Z,2.48
2024-02-22T04:28:19.428Z,2.48
2024-02-22T04:30:47.607Z,2.49
2024-02-22T04:33:15.945Z,2.49
2024-02-22T04:35:51.779Z,2.51
2024-02-22T04:38:19.906Z,2.52
2024-02-22T04:40:47.511Z,2.53
2024-02-22T04:43:15.216Z,2.55
2024-02-22T04:45:42.730Z,2.56
2024-02-22T04:48:10.806Z,2.57
2024-02-22T04:50:39.796Z,2.58
2024-02-22T04:53:07.720Z,2.59
2024-02-22T04:55:41.302Z,2.59
2024-02-22T04:58:08.810Z,2.60
2024-02-22T05:00:36.682Z,2.60
2024-02-22T05:03:05.239Z,2.59
2024-02-22T05:05:34.010Z,2.59
2024-02-22T05:08:03.448Z,2.60
2024-02-22T05:10:33.453Z,2.62
2024-02-22T05:13:01.279Z,2.64
2024-02-22T05:15:28.917Z,2.66
2024-02-22T05:18:00.002Z,2.68
2024-02-22T05:20:29.940Z,2.68
2024-02-22T05:22:57.524Z,2.69
2024-02-22T05:25:25.070Z,2.69
2024-02-22T05:27:52.581Z,2.69
2024-02-22T05:30:20.236Z,2.70
2024-02-22T05:32:48.032Z,2.71
2024-02-22T05:35:15.884Z,2.73
2024-02-22T05:37:43.577Z,2.74
2024-02-22T05:40:12.214Z,2.75
2024-02-22T05:42:39.932Z,2.76
2024-02-22T05:45:08.416Z,2.77
2024-02-22T05:47:36.509Z,2.77
2024-02-22T05:50:04.600Z,2.77
2024-02-22T05:52:32.155Z,2.78
2024-02-22T05:54:59.733Z,2.78
2024-02-22T05:57:27.360Z,2.79
2024-02-22T05:59:54.971Z,2.81
2024-02-22T06:02:22.540Z,2.81
2024-02-22T06:04:51.014Z,2.82
2024-02-22T06:07:19.198Z,2.83
2024-02-22T06:09:46.919Z,2.84
2024-02-22T06:12:16.424Z,2.86
2024-02-22T06:14:44.484Z,2.87
2024-02-22T06:17:12.595Z,2.87
2024-02-22T06:19:40.554Z,2.87
2024-02-22T06:22:08.041Z,2.87
2024-02-22T06:24:35.653Z,2.89
2024-02-22T06:27:03.918Z,2.90
2024-02-22T06:29:32.180Z,2.90
2024-02-22T06:32:00.316Z,2.91
2024-02-22T06:34:28.064Z,2.94
2024-02-22T06:36:55.720Z,2.95
2024-02-22T06:39:24.485Z,2.97
2024-02-22T06:41:52.350Z,2.99
2024-02-22T06:44:20.042Z,3.02
2024-02-22T06:46:48.434Z,3.04
2024-02-22T06:49:17.183Z,3.07
2024-02-22T06:51:44.974Z,3.09
2024-02-22T06:54:14.471Z,3.12
2024-02-22T06:56:42.416Z,3.14
2024-02-22T06:59:10.494Z,3.18
2024-02-22T07:01:38.467Z,3.21
2024-02-22T07:04:16.393Z,3.23
2024-02-22T07:06:52.605Z,3.26
2024-02-22T07:09:23.815Z,3.29
2024-02-22T07:11:51.977Z,3.32
2024-02-22T07:14:20.698Z,3.34
2024-02-22T07:16:50.607Z,3.37
2024-02-22T07:19:19.203Z,3.42
2024-02-22T07:21:47.570Z,3.46
2024-02-22T07:24:15.121Z,3.50
2024-02-22T07:26:42.710Z,3.52
2024-02-22T07:29:12.373Z,3.55
2024-02-22T07:31:41.575Z,3.59
2024-02-22T07:34:10.414Z,3.63
2024-02-22T07:36:39.325Z,3.68
2024-02-22T07:39:06.844Z,3.73
2024-02-22T07:41:34.410Z,3.77
2024-02-22T07:44:02.304Z,3.81
2024-02-22T07:46:29.910Z,3.84
2024-02-22T07:48:57.568Z,3.89
2024-02-22T07:51:25.157Z,3.92
2024-02-22T07:53:53.890Z,3.96
2024-02-22T07:56:22.213Z,4.00
2024-02-22T07:58:55.436Z,4.03
2024-02-22T08:01:23.205Z,4.06
2024-02-22T08:03:50.897Z,4.09
2024-02-22T08:06:18.612Z,4.12
2024-02-22T08:08:47.618Z,4.15
2024-02-22T08:11:15.276Z,4.19
2024-02-22T08:13:43.440Z,4.23
2024-02-22T08:16:11.974Z,4.26
2024-02-22T08:18:40.736Z,4.31
2024-02-22T08:21:08.626Z,4.35
2024-02-22T08:23:36.499Z,4.40
2024-02-22T08:26:04.211Z,4.47
2024-02-22T08:28:34.086Z,4.54
2024-02-22T08:31:01.926Z,4.58
2024-02-22T08:33:31.038Z,4.61
2024-02-22T08:35:59.013Z,4.63
2024-02-22T08:38:27.546Z,4.67
2024-02-22T08:40:55.353Z,4.71
2024-02-22T08:43:22.890Z,4.75
2024-02-22T08:45:50.570Z,4.81
2024-02-22T08:48:19.119Z,4.87
2024-02-22T08:50:46.924Z,4.93
2024-02-22T08:53:14.580Z,5.02
2024-02-22T08:55:43.432Z,5.09
2024-02-22T08:58:11.035Z,5.15
2024-02-22T09:00:38.685Z,5.20
2024-02-22T09:03:06.290Z,5.24
2024-02-22T09:05:34.223Z,5.30
2024-02-22T09:08:02.056Z,5.35
2024-02-22T09:10:29.903Z,5.39
2024-02-22T09:12:57.435Z,5.41
2024-02-22T09:15:25.033Z,5.44
2024-02-22T09:17:52.600Z,5.47
2024-02-22T09:20:21.159Z,5.49
2024-02-22T09:22:49.271Z,5.54
2024-02-22T09:25:17.042Z,5.57
2024-02-22T09:27:45.290Z,5.58
2024-02-22T09:30:13.290Z,5.61
2024-02-22T09:32:40.857Z,5.65
2024-02-22T09:35:08.440Z,5.69
2024-02-22T09:37:36.386Z,5.73
2024-02-22T09:40:04.399Z,5.77
2024-02-22T09:42:32.010Z,5.83
2024-02-22T09:44:59.697Z,5.88
2024-02-22T09:47:28.711Z,5.93
2024-02-22T09:49:56.538Z,5.98
2024-02-22T09:52:24.515Z,6.04
2024-02-22T09:54:52.365Z,6.12
2024-02-22T09:57:19.896Z,6.20
2024-02-22T09:59:51.885Z,6.24
2024-02-22T10:02:20.277Z,6.28
2024-02-22T10:04:52.790Z,6.33
2024-02-22T10:07:27.435Z,6.38
2024-02-22T10:09:55.233Z,6.46
2024-02-22T10:12:35.438Z,6.54
2024-02-22T10:15:10.600Z,6.63
2024-02-22T10:17:39.408Z,6.72
2024-02-22T10:20:09.099Z,6.79
2024-02-22T10:22:40.468Z,6.88
2024-02-22T10:25:13.986Z,7.02
2024-02-22T10:27:47.507Z,7.11
2024-02-22T10:30:15.416Z,7.19
2024-02-22T10:32:43.962Z,7.26
2024-02-22T10:35:12.981Z,7.36
2024-02-22T10:37:41.198Z,7.45
2024-02-22T10:40:13.346Z,7.53
2024-02-22T10:42:41.403Z,7.58
2024-02-22T10:45:10.029Z,7.63
2024-02-22T10:47:40.752Z,7.71
2024-02-22T10:50:08.752Z,7.79
2024-02-22T10:52:39.387Z,7.83
2024-02-22T10:55:10.450Z,7.87
2024-02-22T10:57:38.102Z,7.94
2024-02-22T11:00:06.261Z,8.01
2024-02-22T11:02:33.897Z,8.06
2024-02-22T11:05:05.331Z,8.08
2024-02-22T11:07:33.387Z,8.10
2024-02-22T11:10:06.540Z,8.14
2024-02-22T11:12:34.648Z,8.19
2024-02-22T11:15:08.943Z,8.25
2024-02-22T11:17:36.731Z,8.29
2024-02-22T11:20:10.831Z,8.34
2024-02-22T11:22:38.777Z,8.36
2024-02-22T11:25:08.895Z,8.34
2024-02-22T11:27:37.918Z,8.35
2024-02-22T11:30:19.177Z,8.38
2024-02-22T11:32:49.623Z,8.41
2024-02-22T11:35:17.269Z,8.44
2024-02-22T11:37:44.876Z,8.45
2024-02-22T11:40:12.450Z,8.47
2024-02-22T11:42:40.028Z,8.50
2024-02-22T11:45:12.025Z,8.53
2024-02-22T11:47:40.805Z,8.56
2024-02-22T11:50:09.049Z,8.60
2024-02-22T11:52:36.784Z,8.67
2024-02-22T11:55:04.698Z,8.74
2024-02-22T11:57:32.198Z,8.77
2024-02-22T11:59:59.913Z,8.81
2024-02-22T12:02:27.681Z,8.82
2024-02-22T12:04:56.041Z,8.81
2024-02-22T12:07:23.775Z,8.79
2024-02-22T12:09:51.478Z,8.78
2024-02-22T12:12:19.373Z,8.79
2024-02-22T12:14:58.254Z,8.80
2024-02-22T12:17:33.280Z,8.80
2024-02-22T12:20:01.671Z,8.79
2024-02-22T12:22:31.211Z,8.77
2024-02-22T12:24:59.916Z,8.75
2024-02-22T12:27:30.465Z,8.73
2024-02-22T12:29:59.265Z,8.73
2024-02-22T12:32:27.091Z,8.76
2024-02-22T12:34:55.547Z,8.79
2024-02-22T12:37:24.686Z,8.78
2024-02-22T12:39:52.256Z,8.77
2024-02-22T12:42:20.108Z,8.77
2024-02-22T12:44:47.647Z,8.77
2024-02-22T12:47:15.412Z,8.77
2024-02-22T12:49:43.934Z,8.77
2024-02-22T12:52:13.152Z,8.78
2024-02-22T12:54:40.903Z,8.79
2024-02-22T12:57:09.773Z,8.80
2024-02-22T12:59:37.430Z,8.83
2024-02-22T13:02:05.372Z,8.86
2024-02-22T13:04:33.126Z,8.84
2024-02-22T13:07:01.368Z,8.84
2024-02-22T13:09:28.941Z,8.82
2024-02-22T13:11:56.611Z,8.80
2024-02-22T13:14:25.703Z,8.78
2024-02-22T13:16:53.517Z,8.75
2024-02-22T13:19:21.248Z,8.72
2024-02-22T13:21:48.870Z,8.71
2024-02-22T13:24:16.396Z,8.72
2024-02-22T13:26:44.022Z,8.73
2024-02-22T13:29:11.629Z,8.72
2024-02-22T13:31:39.308Z,8.72
2024-02-22T13:34:07.261Z,8.71
2024-02-22T13:36:35.472Z,8.72
2024-02-22T13:39:04.719Z,8.72
2024-02-22T13:41:32.337Z,8.73
2024-02-22T13:43:59.963Z,8.74
2024-02-22T13:46:27.721Z,8.77
2024-02-22T13:48:55.361Z,8.78
2024-02-22T13:51:29.675Z,8.78
2024-02-22T13:54:03.738Z,8.78
2024-02-22T13:56:32.313Z,8.77
2024-02-22T13:58:59.930Z,8.78
2024-02-22T14:01:27.500Z,8.78
2024-02-22T14:03:55.231Z,8.78
2024-02-22T14:06:22.972Z,8.76
2024-02-22T14:08:50.772Z,8.75
2024-02-22T14:11:18.562Z,8.74
2024-02-22T14:13:46.231Z,8.74
2024-02-22T14:16:13.885Z,8.74
2024-02-22T14:18:41.511Z,8.74
2024-02-22T14:21:14.928Z,8.74
2024-02-22T14:23:44.187Z,8.76
2024-02-22T14:26:11.911Z,8.77
2024-02-22T14:28:39.479Z,8.78
2024-02-22T14:31:07.059Z,8.78
2024-02-22T14:33:34.661Z,8.79
2024-02-22T14:36:02.225Z,8.79
2024-02-22T14:38:29.811Z,8.79
2024-02-22T14:40:57.407Z,8.77
2024-02-22T14:43:25.051Z,8.76
2024-02-22T14:45:52.716Z,8.75
2024-02-22T14:48:20.383Z,8.73
2024-02-22T14:50:48.282Z,8.71
2024-02-22T14:53:15.904Z,8.69
2024-02-22T14:55:43.952Z,8.66
2024-02-22T14:58:11.494Z,8.63
2024-02-22T15:00:40.101Z,8.61
2024-02-22T15:03:07.657Z,8.59
2024-02-22T15:05:35.384Z,8.55
2024-02-22T15:08:03.181Z,8.52
2024-02-22T15:10:31.796Z,8.49
2024-02-22T15:12:59.457Z,8.46
2024-02-22T15:15:27.073Z,8.43
2024-02-22T15:17:54.773Z,8.39
2024-02-22T15:20:22.532Z,8.36
2024-02-22T15:22:50.081Z,8.34
2024-02-22T15:25:20.177Z,8.31
2024-02-22T15:27:47.930Z,8.29
2024-02-22T15:30:15.745Z,8.26
2024-02-22T15:32:43.406Z,8.22
2024-02-22T15:35:12.047Z,8.18
2024-02-22T15:37:39.794Z,8.15
2024-02-22T15:40:08.374Z,8.12
2024-02-22T15:42:35.926Z,8.11
2024-02-22T15:45:04.466Z,8.11
2024-02-22T15:47:32.618Z,8.09
2024-02-22T15:50:01.831Z,8.09
2024-02-22T15:52:29.432Z,8.08
2024-02-22T15:54:58.334Z,8.08
2024-02-22T15:57:26.316Z,8.06
2024-02-22T15:59:53.888Z,8.05
2024-02-22T16:02:22.662Z,8.02
2024-02-22T16:04:50.877Z,7.99
2024-02-22T16:07:18.538Z,7.96
2024-02-22T16:09:46.050Z,7.93
2024-02-22T16:12:14.551Z,7.90
2024-02-22T16:14:42.356Z,7.87
2024-02-22T16:17:10.408Z,7.86
2024-02-22T16:19:38.311Z,7.85
2024-02-22T16:22:07.642Z,7.83
2024-02-22T16:24:35.270Z,7.81
2024-02-22T16:27:02.899Z,7.80
2024-02-22T16:29:30.656Z,7.79
2024-02-22T16:31:58.489Z,7.80
2024-02-22T16:34:29.955Z,7.83
2024-02-22T16:36:58.199Z,7.83
2024-02-22T16:39:31.011Z,7.84
2024-02-22T16:42:05.574Z,7.84
2024-02-22T16:44:35.327Z,7.83
2024-02-22T16:47:02.966Z,7.82
2024-02-22T16:49:30.516Z,7.81
2024-02-22T16:51:58.828Z,7.78
2024-02-22T16:54:26.701Z,7.76
2024-02-22T16:56:54.242Z,7.75
2024-02-22T16:59:21.895Z,7.74
2024-02-22T17:01:49.623Z,7.73
2024-02-22T17:04:17.220Z,7.72
2024-02-22T17:06:44.735Z,7.71
2024-02-22T17:09:12.437Z,7.71
2024-02-22T17:11:40.233Z,7.71
2024-02-22T17:14:07.902Z,7.71
2024-02-22T17:16:35.629Z,7.71
2024-02-22T17:19:03.245Z,7.71
2024-02-22T17:21:30.763Z,7.71
2024-02-22T17:23:58.773Z,7.71
2024-02-22T17:26:26.416Z,7.71
2024-02-22T17:28:54.030Z,7.72
2024-02-22T17:31:22.479Z,7.71
2024-02-22T17:33:50.102Z,7.71
2024-02-22T17:36:17.778Z,7.70
2024-02-22T17:38:45.333Z,7.69
2024-02-22T17:41:12.964Z,7.69
2024-02-22T17:43:40.547Z,7.68
2024-02-22T17:46:08.999Z,7.67
2024-02-22T17:48:38.355Z,7.66
2024-02-22T17:51:05.986Z,7.65
2024-02-22T17:53:35.412Z,7.64
2024-02-22T17:56:03.070Z,7.61
2024-02-22T17:58:32.110Z,7.59
2024-02-22T18:00:59.996Z,7.57
2024-02-22T18:03:28.188Z,7.55
2024-02-22T18:05:55.798Z,7.52
2024-02-22T18:08:23.818Z,7.50
2024-02-22T18:10:54.328Z,7.50
2024-02-22T18:13:22.005Z,7.48
2024-02-22T18:15:49.771Z,7.46
2024-02-22T18:18:17.663Z,7.45
2024-02-22T18:20:45.548Z,7.44
2024-02-22T18:23:13.294Z,7.44
2024-02-22T18:25:41.105Z,7.44
2024-02-22T18:28:09.056Z,7.42
2024-02-22T18:30:37.215Z,7.40
2024-02-22T18:33:05.332Z,7.36
2024-02-22T18:35:34.268Z,7.34
2024-02-22T18:38:03.005Z,7.33
2024-02-22T18:40:31.911Z,7.32
2024-02-22T18:43:00.399Z,7.32
2024-02-22T18:45:27.916Z,7.31
2024-02-22T18:47:56.215Z,7.32
2024-02-22T18:50:24.080Z,7.32
2024-02-22T18:52:52.053Z,7.31
2024-02-22T18:55:19.641Z,7.31
2024-02-22T18:57:47.161Z,7.32
2024-02-22T19:00:15.209Z,7.31
2024-02-22T19:02:42.949Z,7.32
2024-02-22T19:05:11.528Z,7.31
2024-02-22T19:07:39.751Z,7.30
2024-02-22T19:10:09.678Z,7.29
2024-02-22T19:12:38.262Z,7.26
2024-02-22T19:15:06.913Z,7.24
2024-02-22T19:17:34.592Z,7.21
2024-02-22T19:20:02.624Z,7.20
2024-02-22T19:22:31.598Z,7.19
2024-02-22T19:24:59.608Z,7.17
2024-02-22T19:27:29.458Z,7.16
2024-02-22T19:29:57.027Z,7.16
2024-02-22T19:32:24.751Z,7.15
2024-02-22T19:34:52.535Z,7.13
2024-02-22T19:37:20.153Z,7.11
2024-02-22T19:39:54.253Z,7.09
2024-02-22T19:42:21.824Z,7.08
2024-02-22T19:44:49.807Z,7.06
2024-02-22T19:47:17.433Z,7.04
2024-02-22T19:49:45.031Z,7.03
2024-02-22T19:52:12.607Z,7.02
2024-02-22T19:54:40.463Z,7.02
2024-02-22T19:57:08.031Z,7.00
2024-02-22T19:59:35.652Z,6.98
2024-02-22T20:02:03.352Z,6.96
2024-02-22T20:04:31.097Z,6.94
2024-02-22T20:06:58.889Z,6.93
2024-02-22T20:09:26.423Z,6.91
2024-02-22T20:11:54.084Z,6.91
2024-02-22T20:14:21.737Z,6.90
2024-02-22T20:16:52.615Z,6.88
2024-02-22T20:19:20.247Z,6.86
2024-02-22T20:21:48.041Z,6.86
2024-02-22T20:24:15.668Z,6.85
2024-02-22T20:26:43.303Z,6.83
2024-02-22T20:29:11.529Z,6.82
2024-02-22T20:31:39.748Z,6.82
2024-02-22T20:34:07.564Z,6.81
2024-02-22T20:36:36.148Z,6.80
2024-02-22T20:39:07.915Z,6.80
2024-02-22T20:41:35.706Z,6.81
2024-02-22T20:44:03.845Z,6.80
2024-02-22T20:46:31.791Z,6.79
2024-02-22T20:49:01.000Z,6.77
2024-02-22T20:51:30.988Z,6.77
2024-02-22T20:53:58.895Z,6.75
2024-02-22T20:56:27.882Z,6.74
2024-02-22T20:58:55.907Z,6.72
2024-02-22T21:01:23.834Z,6.70
2024-02-22T21:03:51.510Z,6.67
2024-02-22T21:06:21.662Z,6.64
2024-02-22T21:08:50.299Z,6.61
2024-02-22T21:11:18.481Z,6.59
2024-02-22T21:13:46.352Z,6.58
2024-02-22T21:16:14.529Z,6.55
2024-02-22T21:18:42.523Z,6.53
2024-02-22T21:21:10.369Z,6.50
2024-02-22T21:23:39.724Z,6.46
2024-02-22T21:26:07.576Z,6.44
2024-02-22T21:28:35.312Z,6.42
2024-02-22T21:31:02.935Z,6.40
2024-02-22T21:33:32.379Z,6.38
2024-02-22T21:36:00.207Z,6.34
2024-02-22T21:38:28.210Z,6.31
2024-02-22T21:40:56.097Z,6.27
2024-02-22T21:43:24.949Z,6.24
2024-02-22T21:45:52.622Z,6.20
2024-02-22T21:48:20.205Z,6.18
2024-02-22T21:50:47.901Z,6.15
2024-02-22T21:53:15.600Z,6.13
2024-02-22T21:55:43.296Z,6.10
2024-02-22T21:58:10.929Z,6.07
2024-02-22T22:00:39.019Z,6.03
2024-02-22T22:05:52.107Z,5.93
2024-02-22T22:08:19.898Z,5.89
2024-02-22T22:10:47.495Z,5.85
2024-02-22T22:13:15.059Z,5.81
2024-02-22T22:15:42.546Z,5.76
2024-02-22T22:18:10.156Z,5.72
2024-02-22T22:20:37.712Z,5.69
2024-02-22T22:23:05.472Z,5.67
2024-02-22T22:25:33.030Z,5.63
2024-02-22T22:28:00.487Z,5.61
2024-02-22T22:30:28.021Z,5.57
2024-02-22T22:32:55.473Z,5.53
2024-02-22T22:35:23.156Z,5.49
2024-02-22T22:37:50.784Z,5.46
2024-02-22T22:40:18.215Z,5.42
2024-02-22T22:42:45.788Z,5.39
2024-02-22T22:45:13.440Z,5.36
2024-02-22T22:47:40.977Z,5.34
2024-02-22T22:50:10.114Z,5.32
2024-02-22T22:52:37.724Z,5.30
2024-02-22T22:55:07.763Z,5.27
2024-02-22T22:57:35.627Z,5.24
2024-02-22T23:00:09.888Z,5.21
2024-02-22T23:02:37.707Z,5.18
2024-02-22T23:05:05.833Z,5.16
2024-02-22T23:07:33.325Z,5.14
2024-02-22T23:10:00.952Z,5.12
2024-02-22T23:12:28.532Z,5.10
2024-02-22T23:14:59.513Z,5.08
2024-02-22T23:17:27.223Z,5.06
2024-02-22T23:19:54.790Z,5.03
2024-02-22T23:22:22.429Z,5.01
2024-02-22T23:24:50.124Z,4.99
2024-02-22T23:27:17.739Z,4.97
2024-02-22T23:29:45.286Z,4.94
2024-02-22T23:32:12.819Z,4.90
2024-02-22T23:34:40.992Z,4.87
2024-02-22T23:37:08.545Z,4.86
2024-02-22T23:39:37.490Z,4.83
2024-02-22T23:42:05.471Z,4.82
2024-02-22T23:44:33.061Z,4.79
2024-02-22T23:47:00.669Z,4.77
2024-02-22T23:49:28.278Z,4.73
2024-02-22T23:51:57.317Z,4.69
2024-02-22T23:54:25.176Z,4.67
2024-02-22T23:56:52.676Z,4.64
2024-02-22T23:59:21.478Z,4.62
